<?xml version="1.0" encoding="utf-8"?>
<gpx xmlns:xsi="http://www.w3.org/2001/XMLSchema-instance" xmlns:xsd="http://www.w3.org/2001/XMLSchema" version="1.1" creator="Shapelink.com" xmlns="http://www.topografix.com/GPX/1/1" xmlns:gpxtpx="http://www.garmin.com/xmlschemas/TrackPointExtension/v1">
  <metadata>
    <name>Løping 4.19 km, 2012-04-14</name>
    <desc></desc>
    <author><name>Mikael Blom</name></author> 
    <time>2012-04-14T18:35:42Z</time>
  </metadata>
  <trk>
    <name>Løping 4.19 km, 2012-04-14</name>
    <trkseg>
      <trkpt lat="59.9926657" lon="17.7371019">
        <ele>61.181</ele>
        <time>2012-04-14T18:35:42Z</time>
      </trkpt>
      <trkpt lat="59.9925431" lon="17.7372936">
        <ele>59.2584</ele>
        <time>2012-04-14T18:35:48Z</time>
      </trkpt>
      <trkpt lat="59.9924241" lon="17.7374456">
        <ele>58.7777</ele>
        <time>2012-04-14T18:35:53Z</time>
      </trkpt>
      <trkpt lat="59.9922708" lon="17.7375745">
        <ele>59.7391</ele>
        <time>2012-04-14T18:35:59Z</time>
      </trkpt>
      <trkpt lat="59.9921288" lon="17.7376701">
        <ele>61.181</ele>
        <time>2012-04-14T18:36:05Z</time>
      </trkpt>
      <trkpt lat="59.9919878" lon="17.7377276">
        <ele>62.6229</ele>
        <time>2012-04-14T18:36:10Z</time>
      </trkpt>
      <trkpt lat="59.9918572" lon="17.7377455">
        <ele>60.2197</ele>
        <time>2012-04-14T18:36:16Z</time>
      </trkpt>
      <trkpt lat="59.991692" lon="17.737731">
        <ele>59.2584</ele>
        <time>2012-04-14T18:36:23Z</time>
      </trkpt>
      <trkpt lat="59.991545" lon="17.7377563">
        <ele>58.7777</ele>
        <time>2012-04-14T18:36:28Z</time>
      </trkpt>
      <trkpt lat="59.9914792" lon="17.7377854">
        <ele>59.2584</ele>
        <time>2012-04-14T18:36:30Z</time>
      </trkpt>
      <trkpt lat="59.9914051" lon="17.7377816">
        <ele>58.2971</ele>
        <time>2012-04-14T18:36:33Z</time>
      </trkpt>
      <trkpt lat="59.991286" lon="17.7378165">
        <ele>58.2971</ele>
        <time>2012-04-14T18:36:37Z</time>
      </trkpt>
      <trkpt lat="59.9911465" lon="17.7378551">
        <ele>61.181</ele>
        <time>2012-04-14T18:36:42Z</time>
      </trkpt>
      <trkpt lat="59.9910907" lon="17.737884">
        <ele>62.1423</ele>
        <time>2012-04-14T18:36:44Z</time>
      </trkpt>
      <trkpt lat="59.9909239" lon="17.7380325">
        <ele>65.9877</ele>
        <time>2012-04-14T18:36:50Z</time>
      </trkpt>
      <trkpt lat="59.9908177" lon="17.7381358">
        <ele>67.4297</ele>
        <time>2012-04-14T18:36:54Z</time>
      </trkpt>
      <trkpt lat="59.9906929" lon="17.7381702">
        <ele>68.8716</ele>
        <time>2012-04-14T18:36:59Z</time>
      </trkpt>
      <trkpt lat="59.9905847" lon="17.738252">
        <ele>68.8716</ele>
        <time>2012-04-14T18:37:04Z</time>
      </trkpt>
      <trkpt lat="59.9904623" lon="17.7382918">
        <ele>67.4297</ele>
        <time>2012-04-14T18:37:10Z</time>
      </trkpt>
      <trkpt lat="59.9903901" lon="17.7383036">
        <ele>65.0264</ele>
        <time>2012-04-14T18:37:14Z</time>
      </trkpt>
      <trkpt lat="59.9902727" lon="17.7383236">
        <ele>62.1423</ele>
        <time>2012-04-14T18:37:20Z</time>
      </trkpt>
      <trkpt lat="59.990253" lon="17.7383279">
        <ele>62.1423</ele>
        <time>2012-04-14T18:37:21Z</time>
      </trkpt>
      <trkpt lat="59.9901247" lon="17.7384191">
        <ele>61.181</ele>
        <time>2012-04-14T18:37:27Z</time>
      </trkpt>
      <trkpt lat="59.9901007" lon="17.7384332">
        <ele>61.6617</ele>
        <time>2012-04-14T18:37:28Z</time>
      </trkpt>
      <trkpt lat="59.9900412" lon="17.7384473">
        <ele>62.1423</ele>
        <time>2012-04-14T18:37:31Z</time>
      </trkpt>
      <trkpt lat="59.9898874" lon="17.7384939">
        <ele>61.6617</ele>
        <time>2012-04-14T18:37:38Z</time>
      </trkpt>
      <trkpt lat="59.9897765" lon="17.738582">
        <ele>60.2197</ele>
        <time>2012-04-14T18:37:43Z</time>
      </trkpt>
      <trkpt lat="59.9897555" lon="17.7385975">
        <ele>59.7391</ele>
        <time>2012-04-14T18:37:44Z</time>
      </trkpt>
      <trkpt lat="59.9896262" lon="17.7386362">
        <ele>59.7391</ele>
        <time>2012-04-14T18:37:49Z</time>
      </trkpt>
      <trkpt lat="59.9894802" lon="17.7386783">
        <ele>59.2584</ele>
        <time>2012-04-14T18:37:55Z</time>
      </trkpt>
      <trkpt lat="59.989388" lon="17.7387016">
        <ele>60.2197</ele>
        <time>2012-04-14T18:37:59Z</time>
      </trkpt>
      <trkpt lat="59.989275" lon="17.7387564">
        <ele>59.7391</ele>
        <time>2012-04-14T18:38:04Z</time>
      </trkpt>
      <trkpt lat="59.9891093" lon="17.738861">
        <ele>60.7003</ele>
        <time>2012-04-14T18:38:11Z</time>
      </trkpt>
      <trkpt lat="59.9890632" lon="17.7389254">
        <ele>61.6617</ele>
        <time>2012-04-14T18:38:13Z</time>
      </trkpt>
      <trkpt lat="59.9889333" lon="17.7389868">
        <ele>60.2197</ele>
        <time>2012-04-14T18:38:19Z</time>
      </trkpt>
      <trkpt lat="59.9888076" lon="17.7390544">
        <ele>59.7391</ele>
        <time>2012-04-14T18:38:25Z</time>
      </trkpt>
      <trkpt lat="59.9887575" lon="17.7390943">
        <ele>59.7391</ele>
        <time>2012-04-14T18:38:27Z</time>
      </trkpt>
      <trkpt lat="59.9886358" lon="17.7391465">
        <ele>59.7391</ele>
        <time>2012-04-14T18:38:32Z</time>
      </trkpt>
      <trkpt lat="59.9885317" lon="17.7392911">
        <ele>57.8165</ele>
        <time>2012-04-14T18:38:38Z</time>
      </trkpt>
      <trkpt lat="59.9884902" lon="17.7393107">
        <ele>57.8165</ele>
        <time>2012-04-14T18:38:40Z</time>
      </trkpt>
      <trkpt lat="59.9883566" lon="17.7393277">
        <ele>56.3745</ele>
        <time>2012-04-14T18:38:45Z</time>
      </trkpt>
      <trkpt lat="59.9882425" lon="17.739344">
        <ele>55.4131</ele>
        <time>2012-04-14T18:38:49Z</time>
      </trkpt>
      <trkpt lat="59.9881889" lon="17.7393821">
        <ele>56.3745</ele>
        <time>2012-04-14T18:38:52Z</time>
      </trkpt>
      <trkpt lat="59.9880202" lon="17.7393586">
        <ele>53.4905</ele>
        <time>2012-04-14T18:38:59Z</time>
      </trkpt>
      <trkpt lat="59.9879426" lon="17.7393211">
        <ele>53.4905</ele>
        <time>2012-04-14T18:39:03Z</time>
      </trkpt>
      <trkpt lat="59.9877836" lon="17.7393698">
        <ele>53.0098</ele>
        <time>2012-04-14T18:39:09Z</time>
      </trkpt>
      <trkpt lat="59.9876758" lon="17.7394029">
        <ele>53.0098</ele>
        <time>2012-04-14T18:39:13Z</time>
      </trkpt>
      <trkpt lat="59.9876265" lon="17.7394038">
        <ele>53.0098</ele>
        <time>2012-04-14T18:39:15Z</time>
      </trkpt>
      <trkpt lat="59.9874713" lon="17.7393916">
        <ele>54.9324</ele>
        <time>2012-04-14T18:39:21Z</time>
      </trkpt>
      <trkpt lat="59.9873288" lon="17.7394015">
        <ele>54.9324</ele>
        <time>2012-04-14T18:39:26Z</time>
      </trkpt>
      <trkpt lat="59.9872" lon="17.739444">
        <ele>53.9712</ele>
        <time>2012-04-14T18:39:30Z</time>
      </trkpt>
      <trkpt lat="59.9870751" lon="17.7394577">
        <ele>53.4905</ele>
        <time>2012-04-14T18:39:34Z</time>
      </trkpt>
      <trkpt lat="59.9869231" lon="17.7395029">
        <ele>57.8165</ele>
        <time>2012-04-14T18:39:38Z</time>
      </trkpt>
      <trkpt lat="59.9867866" lon="17.7394615">
        <ele>60.7003</ele>
        <time>2012-04-14T18:39:42Z</time>
      </trkpt>
      <trkpt lat="59.9866689" lon="17.7393667">
        <ele>63.5844</ele>
        <time>2012-04-14T18:39:46Z</time>
      </trkpt>
      <trkpt lat="59.9865428" lon="17.7391957">
        <ele>64.5457</ele>
        <time>2012-04-14T18:39:51Z</time>
      </trkpt>
      <trkpt lat="59.986413" lon="17.7391097">
        <ele>63.1036</ele>
        <time>2012-04-14T18:39:56Z</time>
      </trkpt>
      <trkpt lat="59.9863178" lon="17.7390604">
        <ele>62.1423</ele>
        <time>2012-04-14T18:40:00Z</time>
      </trkpt>
      <trkpt lat="59.9862271" lon="17.7389866">
        <ele>62.1423</ele>
        <time>2012-04-14T18:40:04Z</time>
      </trkpt>
      <trkpt lat="59.98621" lon="17.7389623">
        <ele>61.181</ele>
        <time>2012-04-14T18:40:05Z</time>
      </trkpt>
      <trkpt lat="59.9861104" lon="17.738915">
        <ele>59.2584</ele>
        <time>2012-04-14T18:40:09Z</time>
      </trkpt>
      <trkpt lat="59.9860148" lon="17.7387716">
        <ele>55.8938</ele>
        <time>2012-04-14T18:40:14Z</time>
      </trkpt>
      <trkpt lat="59.9859045" lon="17.7386856">
        <ele>52.5292</ele>
        <time>2012-04-14T18:40:19Z</time>
      </trkpt>
      <trkpt lat="59.9858109" lon="17.7386524">
        <ele>51.0872</ele>
        <time>2012-04-14T18:40:23Z</time>
      </trkpt>
      <trkpt lat="59.9857495" lon="17.7386436">
        <ele>51.0872</ele>
        <time>2012-04-14T18:40:25Z</time>
      </trkpt>
      <trkpt lat="59.9856403" lon="17.7385505">
        <ele>50.6066</ele>
        <time>2012-04-14T18:40:29Z</time>
      </trkpt>
      <trkpt lat="59.9856148" lon="17.7385432">
        <ele>51.0872</ele>
        <time>2012-04-14T18:40:30Z</time>
      </trkpt>
      <trkpt lat="59.9855039" lon="17.7385489">
        <ele>52.5292</ele>
        <time>2012-04-14T18:40:34Z</time>
      </trkpt>
      <trkpt lat="59.985398" lon="17.738482">
        <ele>51.5679</ele>
        <time>2012-04-14T18:40:39Z</time>
      </trkpt>
      <trkpt lat="59.985323" lon="17.7384183">
        <ele>51.0872</ele>
        <time>2012-04-14T18:40:43Z</time>
      </trkpt>
      <trkpt lat="59.9852216" lon="17.7383689">
        <ele>51.0872</ele>
        <time>2012-04-14T18:40:47Z</time>
      </trkpt>
      <trkpt lat="59.9850244" lon="17.7383225">
        <ele>52.5292</ele>
        <time>2012-04-14T18:40:55Z</time>
      </trkpt>
      <trkpt lat="59.9849111" lon="17.7382893">
        <ele>53.9712</ele>
        <time>2012-04-14T18:40:59Z</time>
      </trkpt>
      <trkpt lat="59.9848565" lon="17.7382883">
        <ele>54.9324</ele>
        <time>2012-04-14T18:41:01Z</time>
      </trkpt>
      <trkpt lat="59.9847673" lon="17.7382276">
        <ele>53.9712</ele>
        <time>2012-04-14T18:41:05Z</time>
      </trkpt>
      <trkpt lat="59.9846576" lon="17.738181">
        <ele>53.0098</ele>
        <time>2012-04-14T18:41:09Z</time>
      </trkpt>
      <trkpt lat="59.9845476" lon="17.7381602">
        <ele>53.0098</ele>
        <time>2012-04-14T18:41:13Z</time>
      </trkpt>
      <trkpt lat="59.9843758" lon="17.7381378">
        <ele>54.4518</ele>
        <time>2012-04-14T18:41:19Z</time>
      </trkpt>
      <trkpt lat="59.9842864" lon="17.7381067">
        <ele>53.9712</ele>
        <time>2012-04-14T18:41:22Z</time>
      </trkpt>
      <trkpt lat="59.9841814" lon="17.7381311">
        <ele>54.9324</ele>
        <time>2012-04-14T18:41:26Z</time>
      </trkpt>
      <trkpt lat="59.9840562" lon="17.7381214">
        <ele>53.4905</ele>
        <time>2012-04-14T18:41:31Z</time>
      </trkpt>
      <trkpt lat="59.9839514" lon="17.7381368">
        <ele>53.9712</ele>
        <time>2012-04-14T18:41:35Z</time>
      </trkpt>
      <trkpt lat="59.983838" lon="17.7381171">
        <ele>52.0486</ele>
        <time>2012-04-14T18:41:40Z</time>
      </trkpt>
      <trkpt lat="59.9837635" lon="17.7381207">
        <ele>50.6066</ele>
        <time>2012-04-14T18:41:43Z</time>
      </trkpt>
      <trkpt lat="59.9836767" lon="17.7381674">
        <ele>49.6453</ele>
        <time>2012-04-14T18:41:46Z</time>
      </trkpt>
      <trkpt lat="59.9835359" lon="17.7382073">
        <ele>50.126</ele>
        <time>2012-04-14T18:41:51Z</time>
      </trkpt>
      <trkpt lat="59.9834631" lon="17.738208">
        <ele>49.6453</ele>
        <time>2012-04-14T18:41:54Z</time>
      </trkpt>
      <trkpt lat="59.9834002" lon="17.738244">
        <ele>50.6066</ele>
        <time>2012-04-14T18:41:57Z</time>
      </trkpt>
      <trkpt lat="59.9832666" lon="17.7382875">
        <ele>55.4131</ele>
        <time>2012-04-14T18:42:02Z</time>
      </trkpt>
      <trkpt lat="59.9831739" lon="17.7382857">
        <ele>56.3745</ele>
        <time>2012-04-14T18:42:06Z</time>
      </trkpt>
      <trkpt lat="59.9831091" lon="17.738314">
        <ele>58.2971</ele>
        <time>2012-04-14T18:42:08Z</time>
      </trkpt>
      <trkpt lat="59.982947" lon="17.7383098">
        <ele>59.2584</ele>
        <time>2012-04-14T18:42:14Z</time>
      </trkpt>
      <trkpt lat="59.9828591" lon="17.7382858">
        <ele>58.7777</ele>
        <time>2012-04-14T18:42:18Z</time>
      </trkpt>
      <trkpt lat="59.9827445" lon="17.7382746">
        <ele>61.6617</ele>
        <time>2012-04-14T18:42:22Z</time>
      </trkpt>
      <trkpt lat="59.982629" lon="17.738236">
        <ele>59.7391</ele>
        <time>2012-04-14T18:42:27Z</time>
      </trkpt>
      <trkpt lat="59.9825521" lon="17.7382691">
        <ele>59.2584</ele>
        <time>2012-04-14T18:42:30Z</time>
      </trkpt>
      <trkpt lat="59.9824891" lon="17.738285">
        <ele>59.2584</ele>
        <time>2012-04-14T18:42:32Z</time>
      </trkpt>
      <trkpt lat="59.9823741" lon="17.7382819">
        <ele>60.2197</ele>
        <time>2012-04-14T18:42:37Z</time>
      </trkpt>
      <trkpt lat="59.9823144" lon="17.7382862">
        <ele>60.2197</ele>
        <time>2012-04-14T18:42:40Z</time>
      </trkpt>
      <trkpt lat="59.9821902" lon="17.7383437">
        <ele>59.7391</ele>
        <time>2012-04-14T18:42:45Z</time>
      </trkpt>
      <trkpt lat="59.98211" lon="17.7383375">
        <ele>55.8938</ele>
        <time>2012-04-14T18:42:49Z</time>
      </trkpt>
      <trkpt lat="59.9820036" lon="17.7383359">
        <ele>53.0098</ele>
        <time>2012-04-14T18:42:54Z</time>
      </trkpt>
      <trkpt lat="59.9819698" lon="17.7383535">
        <ele>52.0486</ele>
        <time>2012-04-14T18:42:56Z</time>
      </trkpt>
      <trkpt lat="59.9819404" lon="17.7383837">
        <ele>51.0872</ele>
        <time>2012-04-14T18:42:58Z</time>
      </trkpt>
      <trkpt lat="59.9818631" lon="17.7383965">
        <ele>48.684</ele>
        <time>2012-04-14T18:43:03Z</time>
      </trkpt>
      <trkpt lat="59.9818425" lon="17.7384178">
        <ele>49.1646</ele>
        <time>2012-04-14T18:43:04Z</time>
      </trkpt>
      <trkpt lat="59.9817318" lon="17.7384338">
        <ele>48.684</ele>
        <time>2012-04-14T18:43:09Z</time>
      </trkpt>
      <trkpt lat="59.981629" lon="17.7384892">
        <ele>48.684</ele>
        <time>2012-04-14T18:43:14Z</time>
      </trkpt>
      <trkpt lat="59.9815867" lon="17.7384917">
        <ele>49.1646</ele>
        <time>2012-04-14T18:43:16Z</time>
      </trkpt>
      <trkpt lat="59.9814589" lon="17.7385229">
        <ele>52.0486</ele>
        <time>2012-04-14T18:43:21Z</time>
      </trkpt>
      <trkpt lat="59.9813478" lon="17.7386037">
        <ele>55.4131</ele>
        <time>2012-04-14T18:43:25Z</time>
      </trkpt>
      <trkpt lat="59.9812624" lon="17.7386139">
        <ele>55.8938</ele>
        <time>2012-04-14T18:43:28Z</time>
      </trkpt>
      <trkpt lat="59.9811734" lon="17.7386498">
        <ele>56.3745</ele>
        <time>2012-04-14T18:43:31Z</time>
      </trkpt>
      <trkpt lat="59.9810137" lon="17.7387131">
        <ele>56.8551</ele>
        <time>2012-04-14T18:43:36Z</time>
      </trkpt>
      <trkpt lat="59.9808794" lon="17.7387819">
        <ele>56.3745</ele>
        <time>2012-04-14T18:43:40Z</time>
      </trkpt>
      <trkpt lat="59.9807961" lon="17.7388128">
        <ele>54.9324</ele>
        <time>2012-04-14T18:43:44Z</time>
      </trkpt>
      <trkpt lat="59.9806925" lon="17.7388752">
        <ele>56.3745</ele>
        <time>2012-04-14T18:43:48Z</time>
      </trkpt>
      <trkpt lat="59.9805555" lon="17.7388709">
        <ele>55.4131</ele>
        <time>2012-04-14T18:43:53Z</time>
      </trkpt>
      <trkpt lat="59.9804407" lon="17.7388638">
        <ele>54.9324</ele>
        <time>2012-04-14T18:43:58Z</time>
      </trkpt>
      <trkpt lat="59.9803279" lon="17.7388601">
        <ele>52.0486</ele>
        <time>2012-04-14T18:44:03Z</time>
      </trkpt>
      <trkpt lat="59.9801969" lon="17.7388383">
        <ele>50.6066</ele>
        <time>2012-04-14T18:44:08Z</time>
      </trkpt>
      <trkpt lat="59.9800622" lon="17.7387923">
        <ele>49.6453</ele>
        <time>2012-04-14T18:44:13Z</time>
      </trkpt>
      <trkpt lat="59.9799166" lon="17.7387834">
        <ele>49.1646</ele>
        <time>2012-04-14T18:44:19Z</time>
      </trkpt>
      <trkpt lat="59.9798177" lon="17.7388088">
        <ele>48.2034</ele>
        <time>2012-04-14T18:44:23Z</time>
      </trkpt>
      <trkpt lat="59.9796608" lon="17.7388894">
        <ele>48.2034</ele>
        <time>2012-04-14T18:44:29Z</time>
      </trkpt>
      <trkpt lat="59.9795862" lon="17.7389232">
        <ele>48.684</ele>
        <time>2012-04-14T18:44:33Z</time>
      </trkpt>
      <trkpt lat="59.979538" lon="17.7389466">
        <ele>48.684</ele>
        <time>2012-04-14T18:44:35Z</time>
      </trkpt>
      <trkpt lat="59.9794058" lon="17.7389876">
        <ele>46.7612</ele>
        <time>2012-04-14T18:44:41Z</time>
      </trkpt>
      <trkpt lat="59.9793105" lon="17.7390524">
        <ele>44.8386</ele>
        <time>2012-04-14T18:44:45Z</time>
      </trkpt>
      <trkpt lat="59.979196" lon="17.739143">
        <ele>44.8386</ele>
        <time>2012-04-14T18:44:49Z</time>
      </trkpt>
      <trkpt lat="59.9791121" lon="17.7392018">
        <ele>44.8386</ele>
        <time>2012-04-14T18:44:52Z</time>
      </trkpt>
      <trkpt lat="59.9790215" lon="17.739244">
        <ele>43.8773</ele>
        <time>2012-04-14T18:44:57Z</time>
      </trkpt>
      <trkpt lat="59.9788858" lon="17.7392883">
        <ele>43.3966</ele>
        <time>2012-04-14T18:45:02Z</time>
      </trkpt>
      <trkpt lat="59.9788195" lon="17.7393031">
        <ele>42.916</ele>
        <time>2012-04-14T18:45:04Z</time>
      </trkpt>
      <trkpt lat="59.9786533" lon="17.7392746">
        <ele>41.474</ele>
        <time>2012-04-14T18:45:10Z</time>
      </trkpt>
      <trkpt lat="59.9785927" lon="17.7392264">
        <ele>40.9934</ele>
        <time>2012-04-14T18:45:13Z</time>
      </trkpt>
      <trkpt lat="59.978446" lon="17.7391853">
        <ele>40.5128</ele>
        <time>2012-04-14T18:45:19Z</time>
      </trkpt>
      <trkpt lat="59.9782949" lon="17.7391852">
        <ele>40.0321</ele>
        <time>2012-04-14T18:45:24Z</time>
      </trkpt>
      <trkpt lat="59.978186" lon="17.7391688">
        <ele>40.5128</ele>
        <time>2012-04-14T18:45:28Z</time>
      </trkpt>
      <trkpt lat="59.9780967" lon="17.7391619">
        <ele>40.5128</ele>
        <time>2012-04-14T18:45:31Z</time>
      </trkpt>
      <trkpt lat="59.9779437" lon="17.7391434">
        <ele>41.9547</ele>
        <time>2012-04-14T18:45:36Z</time>
      </trkpt>
      <trkpt lat="59.9777895" lon="17.7390747">
        <ele>42.4354</ele>
        <time>2012-04-14T18:45:42Z</time>
      </trkpt>
      <trkpt lat="59.977657" lon="17.7390373">
        <ele>40.0321</ele>
        <time>2012-04-14T18:45:47Z</time>
      </trkpt>
      <trkpt lat="59.9775757" lon="17.7390382">
        <ele>38.1094</ele>
        <time>2012-04-14T18:45:50Z</time>
      </trkpt>
      <trkpt lat="59.9774474" lon="17.7390205">
        <ele>34.7449</ele>
        <time>2012-04-14T18:45:56Z</time>
      </trkpt>
      <trkpt lat="59.9774275" lon="17.7390171">
        <ele>34.2642</ele>
        <time>2012-04-14T18:45:57Z</time>
      </trkpt>
      <trkpt lat="59.9773194" lon="17.7390185">
        <ele>31.3801</ele>
        <time>2012-04-14T18:46:03Z</time>
      </trkpt>
      <trkpt lat="59.977295" lon="17.7390399">
        <ele>30.8995</ele>
        <time>2012-04-14T18:46:04Z</time>
      </trkpt>
      <trkpt lat="59.9771829" lon="17.7391027">
        <ele>31.3801</ele>
        <time>2012-04-14T18:46:09Z</time>
      </trkpt>
      <trkpt lat="59.977136" lon="17.7391264">
        <ele>31.8607</ele>
        <time>2012-04-14T18:46:11Z</time>
      </trkpt>
      <trkpt lat="59.9770866" lon="17.7391563">
        <ele>32.8223</ele>
        <time>2012-04-14T18:46:13Z</time>
      </trkpt>
      <trkpt lat="59.9769789" lon="17.7392088">
        <ele>32.8223</ele>
        <time>2012-04-14T18:46:17Z</time>
      </trkpt>
      <trkpt lat="59.9769367" lon="17.7392317">
        <ele>32.3416</ele>
        <time>2012-04-14T18:46:19Z</time>
      </trkpt>
      <trkpt lat="59.9768061" lon="17.7393174">
        <ele>30.8995</ele>
        <time>2012-04-14T18:46:25Z</time>
      </trkpt>
      <trkpt lat="59.9766737" lon="17.7393864">
        <ele>30.8995</ele>
        <time>2012-04-14T18:46:30Z</time>
      </trkpt>
      <trkpt lat="59.9765589" lon="17.7394767">
        <ele>31.3801</ele>
        <time>2012-04-14T18:46:35Z</time>
      </trkpt>
      <trkpt lat="59.97645" lon="17.7396454">
        <ele>30.8995</ele>
        <time>2012-04-14T18:46:40Z</time>
      </trkpt>
      <trkpt lat="59.9763966" lon="17.739749">
        <ele>30.4188</ele>
        <time>2012-04-14T18:46:43Z</time>
      </trkpt>
      <trkpt lat="59.9763075" lon="17.7400591">
        <ele>32.3416</ele>
        <time>2012-04-14T18:46:49Z</time>
      </trkpt>
      <trkpt lat="59.9762902" lon="17.7401054">
        <ele>32.8223</ele>
        <time>2012-04-14T18:46:50Z</time>
      </trkpt>
      <trkpt lat="59.9762528" lon="17.7401734">
        <ele>32.8223</ele>
        <time>2012-04-14T18:47:08Z</time>
      </trkpt>
      <trkpt lat="59.9762493" lon="17.7401845">
        <ele>33.3029</ele>
        <time>2012-04-14T18:47:09Z</time>
      </trkpt>
      <trkpt lat="59.9762056" lon="17.7403251">
        <ele>33.7834</ele>
        <time>2012-04-14T18:47:11Z</time>
      </trkpt>
      <trkpt lat="59.9761942" lon="17.7403726">
        <ele>33.3029</ele>
        <time>2012-04-14T18:47:12Z</time>
      </trkpt>
      <trkpt lat="59.9760949" lon="17.7406758">
        <ele>35.2255</ele>
        <time>2012-04-14T18:47:18Z</time>
      </trkpt>
      <trkpt lat="59.9760703" lon="17.7407914">
        <ele>36.1868</ele>
        <time>2012-04-14T18:47:21Z</time>
      </trkpt>
      <trkpt lat="59.9759827" lon="17.7410951">
        <ele>38.5901</ele>
        <time>2012-04-14T18:47:27Z</time>
      </trkpt>
      <trkpt lat="59.9759198" lon="17.7414212">
        <ele>39.5513</ele>
        <time>2012-04-14T18:47:33Z</time>
      </trkpt>
      <trkpt lat="59.9758665" lon="17.7416787">
        <ele>40.5128</ele>
        <time>2012-04-14T18:47:38Z</time>
      </trkpt>
      <trkpt lat="59.9757877" lon="17.7420065">
        <ele>41.9547</ele>
        <time>2012-04-14T18:47:44Z</time>
      </trkpt>
      <trkpt lat="59.9757113" lon="17.7422894">
        <ele>43.3966</ele>
        <time>2012-04-14T18:47:49Z</time>
      </trkpt>
      <trkpt lat="59.975656" lon="17.7424799">
        <ele>44.358</ele>
        <time>2012-04-14T18:47:53Z</time>
      </trkpt>
      <trkpt lat="59.9755647" lon="17.7427266">
        <ele>43.3966</ele>
        <time>2012-04-14T18:47:58Z</time>
      </trkpt>
      <trkpt lat="59.9755033" lon="17.7429633">
        <ele>41.9547</ele>
        <time>2012-04-14T18:48:03Z</time>
      </trkpt>
      <trkpt lat="59.9754556" lon="17.7431296">
        <ele>40.9934</ele>
        <time>2012-04-14T18:48:07Z</time>
      </trkpt>
      <trkpt lat="59.9753882" lon="17.7433529">
        <ele>39.5513</ele>
        <time>2012-04-14T18:48:12Z</time>
      </trkpt>
      <trkpt lat="59.9753635" lon="17.7434446">
        <ele>39.0707</ele>
        <time>2012-04-14T18:48:14Z</time>
      </trkpt>
      <trkpt lat="59.9753446" lon="17.7436552">
        <ele>38.5901</ele>
        <time>2012-04-14T18:48:19Z</time>
      </trkpt>
      <trkpt lat="59.975324" lon="17.7438227">
        <ele>38.1094</ele>
        <time>2012-04-14T18:48:23Z</time>
      </trkpt>
      <trkpt lat="59.9753162" lon="17.7438703">
        <ele>38.1094</ele>
        <time>2012-04-14T18:48:24Z</time>
      </trkpt>
      <trkpt lat="59.9752586" lon="17.7441526">
        <ele>37.6287</ele>
        <time>2012-04-14T18:48:30Z</time>
      </trkpt>
      <trkpt lat="59.9752256" lon="17.7442911">
        <ele>38.1094</ele>
        <time>2012-04-14T18:48:33Z</time>
      </trkpt>
      <trkpt lat="59.9751773" lon="17.7445276">
        <ele>39.5513</ele>
        <time>2012-04-14T18:48:38Z</time>
      </trkpt>
      <trkpt lat="59.9751254" lon="17.74471">
        <ele>40.0321</ele>
        <time>2012-04-14T18:48:42Z</time>
      </trkpt>
      <trkpt lat="59.9750805" lon="17.7448712">
        <ele>40.9934</ele>
        <time>2012-04-14T18:48:46Z</time>
      </trkpt>
      <trkpt lat="59.9749912" lon="17.7451458">
        <ele>40.0321</ele>
        <time>2012-04-14T18:48:53Z</time>
      </trkpt>
      <trkpt lat="59.9749223" lon="17.7453258">
        <ele>39.0707</ele>
        <time>2012-04-14T18:48:58Z</time>
      </trkpt>
      <trkpt lat="59.974862" lon="17.7455373">
        <ele>38.1094</ele>
        <time>2012-04-14T18:49:04Z</time>
      </trkpt>
      <trkpt lat="59.9748012" lon="17.7457023">
        <ele>37.1481</ele>
        <time>2012-04-14T18:49:09Z</time>
      </trkpt>
      <trkpt lat="59.9747355" lon="17.7458673">
        <ele>36.1868</ele>
        <time>2012-04-14T18:49:13Z</time>
      </trkpt>
      <trkpt lat="59.9746501" lon="17.7460019">
        <ele>35.2255</ele>
        <time>2012-04-14T18:49:18Z</time>
      </trkpt>
      <trkpt lat="59.9745694" lon="17.7461122">
        <ele>34.2642</ele>
        <time>2012-04-14T18:49:23Z</time>
      </trkpt>
      <trkpt lat="59.9744636" lon="17.7462846">
        <ele>35.2255</ele>
        <time>2012-04-14T18:49:29Z</time>
      </trkpt>
      <trkpt lat="59.9743512" lon="17.7464351">
        <ele>36.6675</ele>
        <time>2012-04-14T18:49:34Z</time>
      </trkpt>
      <trkpt lat="59.9742439" lon="17.7465838">
        <ele>36.6675</ele>
        <time>2012-04-14T18:49:39Z</time>
      </trkpt>
      <trkpt lat="59.9741362" lon="17.7467416">
        <ele>36.6675</ele>
        <time>2012-04-14T18:49:44Z</time>
      </trkpt>
      <trkpt lat="59.9740382" lon="17.7468722">
        <ele>36.6675</ele>
        <time>2012-04-14T18:49:49Z</time>
      </trkpt>
      <trkpt lat="59.9739097" lon="17.7470328">
        <ele>37.1481</ele>
        <time>2012-04-14T18:49:55Z</time>
      </trkpt>
      <trkpt lat="59.9738003" lon="17.747168">
        <ele>37.1481</ele>
        <time>2012-04-14T18:50:00Z</time>
      </trkpt>
      <trkpt lat="59.9737345" lon="17.7472353">
        <ele>36.6675</ele>
        <time>2012-04-14T18:50:03Z</time>
      </trkpt>
      <trkpt lat="59.9736218" lon="17.7473285">
        <ele>36.6675</ele>
        <time>2012-04-14T18:50:08Z</time>
      </trkpt>
      <trkpt lat="59.9735789" lon="17.7473691">
        <ele>37.1481</ele>
        <time>2012-04-14T18:50:10Z</time>
      </trkpt>
      <trkpt lat="59.9734432" lon="17.747526">
        <ele>37.1481</ele>
        <time>2012-04-14T18:50:16Z</time>
      </trkpt>
      <trkpt lat="59.9733105" lon="17.7476481">
        <ele>35.7061</ele>
        <time>2012-04-14T18:50:22Z</time>
      </trkpt>
      <trkpt lat="59.9732245" lon="17.7477383">
        <ele>35.2255</ele>
        <time>2012-04-14T18:50:26Z</time>
      </trkpt>
      <trkpt lat="59.9731302" lon="17.7478668">
        <ele>33.3029</ele>
        <time>2012-04-14T18:50:32Z</time>
      </trkpt>
      <trkpt lat="59.9730821" lon="17.7479445">
        <ele>33.3029</ele>
        <time>2012-04-14T18:50:35Z</time>
      </trkpt>
      <trkpt lat="59.9729661" lon="17.7481253">
        <ele>34.7449</ele>
        <time>2012-04-14T18:50:41Z</time>
      </trkpt>
      <trkpt lat="59.972919" lon="17.7482048">
        <ele>34.7449</ele>
        <time>2012-04-14T18:50:43Z</time>
      </trkpt>
      <trkpt lat="59.9728173" lon="17.7484253">
        <ele>33.7834</ele>
        <time>2012-04-14T18:50:49Z</time>
      </trkpt>
      <trkpt lat="59.9727038" lon="17.7486536">
        <ele>33.3029</ele>
        <time>2012-04-14T18:50:55Z</time>
      </trkpt>
      <trkpt lat="59.9726266" lon="17.7488352">
        <ele>34.2642</ele>
        <time>2012-04-14T18:51:00Z</time>
      </trkpt>
      <trkpt lat="59.9725453" lon="17.7490044">
        <ele>34.2642</ele>
        <time>2012-04-14T18:51:05Z</time>
      </trkpt>
      <trkpt lat="59.9724578" lon="17.7492053">
        <ele>35.2255</ele>
        <time>2012-04-14T18:51:11Z</time>
      </trkpt>
      <trkpt lat="59.972401" lon="17.7493213">
        <ele>35.2255</ele>
        <time>2012-04-14T18:51:14Z</time>
      </trkpt>
      <trkpt lat="59.9723071" lon="17.7495297">
        <ele>33.7834</ele>
        <time>2012-04-14T18:51:20Z</time>
      </trkpt>
      <trkpt lat="59.9722651" lon="17.7496565">
        <ele>32.8223</ele>
        <time>2012-04-14T18:51:24Z</time>
      </trkpt>
      <trkpt lat="59.9721878" lon="17.7498203">
        <ele>30.8995</ele>
        <time>2012-04-14T18:51:29Z</time>
      </trkpt>
      <trkpt lat="59.972133" lon="17.7499607">
        <ele>31.3801</ele>
        <time>2012-04-14T18:51:33Z</time>
      </trkpt>
      <trkpt lat="59.9720549" lon="17.7501205">
        <ele>29.4575</ele>
        <time>2012-04-14T18:51:39Z</time>
      </trkpt>
      <trkpt lat="59.9720091" lon="17.7502108">
        <ele>28.9769</ele>
        <time>2012-04-14T18:51:42Z</time>
      </trkpt>
      <trkpt lat="59.9719258" lon="17.750375">
        <ele>29.4575</ele>
        <time>2012-04-14T18:51:47Z</time>
      </trkpt>
      <trkpt lat="59.9718464" lon="17.7505334">
        <ele>29.4575</ele>
        <time>2012-04-14T18:51:52Z</time>
      </trkpt>
      <trkpt lat="59.9717298" lon="17.7507329">
        <ele>30.4188</ele>
        <time>2012-04-14T18:51:58Z</time>
      </trkpt>
      <trkpt lat="59.9716014" lon="17.7509483">
        <ele>31.8607</ele>
        <time>2012-04-14T18:52:04Z</time>
      </trkpt>
      <trkpt lat="59.971539" lon="17.7510345">
        <ele>31.8607</ele>
        <time>2012-04-14T18:52:07Z</time>
      </trkpt>
      <trkpt lat="59.9714085" lon="17.7511572">
        <ele>32.8223</ele>
        <time>2012-04-14T18:52:13Z</time>
      </trkpt>
      <trkpt lat="59.9713714" lon="17.7512125">
        <ele>32.8223</ele>
        <time>2012-04-14T18:52:15Z</time>
      </trkpt>
      <trkpt lat="59.9712593" lon="17.7513431">
        <ele>32.3416</ele>
        <time>2012-04-14T18:52:21Z</time>
      </trkpt>
      <trkpt lat="59.9711663" lon="17.7514612">
        <ele>31.8607</ele>
        <time>2012-04-14T18:52:26Z</time>
      </trkpt>
      <trkpt lat="59.9710545" lon="17.7515993">
        <ele>33.3029</ele>
        <time>2012-04-14T18:52:31Z</time>
      </trkpt>
      <trkpt lat="59.9709544" lon="17.7517388">
        <ele>33.7834</ele>
        <time>2012-04-14T18:52:36Z</time>
      </trkpt>
      <trkpt lat="59.970867" lon="17.7518383">
        <ele>33.3029</ele>
        <time>2012-04-14T18:52:41Z</time>
      </trkpt>
      <trkpt lat="59.9707898" lon="17.7520129">
        <ele>34.2642</ele>
        <time>2012-04-14T18:52:45Z</time>
      </trkpt>
      <trkpt lat="59.9707537" lon="17.7521005">
        <ele>34.2642</ele>
        <time>2012-04-14T18:52:47Z</time>
      </trkpt>
      <trkpt lat="59.9706287" lon="17.7523392">
        <ele>35.2255</ele>
        <time>2012-04-14T18:52:54Z</time>
      </trkpt>
      <trkpt lat="59.9705408" lon="17.7525423">
        <ele>35.2255</ele>
        <time>2012-04-14T18:52:59Z</time>
      </trkpt>
      <trkpt lat="59.9704416" lon="17.7527739">
        <ele>35.2255</ele>
        <time>2012-04-14T18:53:05Z</time>
      </trkpt>
      <trkpt lat="59.9703703" lon="17.7529884">
        <ele>36.1868</ele>
        <time>2012-04-14T18:53:10Z</time>
      </trkpt>
      <trkpt lat="59.970291" lon="17.7532028">
        <ele>35.7061</ele>
        <time>2012-04-14T18:53:15Z</time>
      </trkpt>
      <trkpt lat="59.9702183" lon="17.7534074">
        <ele>36.1868</ele>
        <time>2012-04-14T18:53:20Z</time>
      </trkpt>
      <trkpt lat="59.9701397" lon="17.7535994">
        <ele>35.7061</ele>
        <time>2012-04-14T18:53:25Z</time>
      </trkpt>
      <trkpt lat="59.9700611" lon="17.7537919">
        <ele>34.2642</ele>
        <time>2012-04-14T18:53:30Z</time>
      </trkpt>
      <trkpt lat="59.9699766" lon="17.7539788">
        <ele>34.2642</ele>
        <time>2012-04-14T18:53:35Z</time>
      </trkpt>
      <trkpt lat="59.9699109" lon="17.754116">
        <ele>33.3029</ele>
        <time>2012-04-14T18:53:39Z</time>
      </trkpt>
      <trkpt lat="59.9698283" lon="17.7542928">
        <ele>32.3416</ele>
        <time>2012-04-14T18:53:44Z</time>
      </trkpt>
      <trkpt lat="59.969759" lon="17.75445">
        <ele>31.3801</ele>
        <time>2012-04-14T18:53:49Z</time>
      </trkpt>
      <trkpt lat="59.9697006" lon="17.7545862">
        <ele>30.8995</ele>
        <time>2012-04-14T18:53:53Z</time>
      </trkpt>
      <trkpt lat="59.9696202" lon="17.7547124">
        <ele>30.4188</ele>
        <time>2012-04-14T18:53:57Z</time>
      </trkpt>
      <trkpt lat="59.9695431" lon="17.7548495">
        <ele>28.9769</ele>
        <time>2012-04-14T18:54:01Z</time>
      </trkpt>
      <trkpt lat="59.969486" lon="17.754977">
        <ele>27.5349</ele>
        <time>2012-04-14T18:54:05Z</time>
      </trkpt>
      <trkpt lat="59.9694684" lon="17.7549329">
        <ele>27.0543</ele>
        <time>2012-04-14T18:54:07Z</time>
      </trkpt>
      <trkpt lat="59.9694819" lon="17.754893">
        <ele>27.0543</ele>
        <time>2012-04-14T18:54:08Z</time>
      </trkpt>
      <trkpt lat="59.9694962" lon="17.754867">
        <ele>27.5349</ele>
        <time>2012-04-14T18:54:09Z</time>
      </trkpt>
      <trkpt lat="59.9696053" lon="17.7546927">
        <ele>27.5349</ele>
        <time>2012-04-14T18:54:16Z</time>
      </trkpt>
      <trkpt lat="59.9696777" lon="17.754603">
        <ele>26.0929</ele>
        <time>2012-04-14T18:54:20Z</time>
      </trkpt>
      <trkpt lat="59.9697766" lon="17.7544056">
        <ele>25.6123</ele>
        <time>2012-04-14T18:54:26Z</time>
      </trkpt>
      <trkpt lat="59.9698767" lon="17.7542141">
        <ele>24.651</ele>
        <time>2012-04-14T18:54:32Z</time>
      </trkpt>
      <trkpt lat="59.9699417" lon="17.7541078">
        <ele>22.2476</ele>
        <time>2012-04-14T18:54:36Z</time>
      </trkpt>
      <trkpt lat="59.9700394" lon="17.7539638">
        <ele>19.3638</ele>
        <time>2012-04-14T18:54:42Z</time>
      </trkpt>
      <trkpt lat="59.9700561" lon="17.7539254">
        <ele>19.8444</ele>
        <time>2012-04-14T18:54:43Z</time>
      </trkpt>
      <trkpt lat="59.9701408" lon="17.7537365">
        <ele>18.8831</ele>
        <time>2012-04-14T18:54:49Z</time>
      </trkpt>
      <trkpt lat="59.9702207" lon="17.7535281">
        <ele>17.4412</ele>
        <time>2012-04-14T18:54:55Z</time>
      </trkpt>
      <trkpt lat="59.9702489" lon="17.7534778">
        <ele>16.9604</ele>
        <time>2012-04-14T18:54:57Z</time>
      </trkpt>
      <trkpt lat="59.9703272" lon="17.7532572">
        <ele>17.4412</ele>
        <time>2012-04-14T18:55:03Z</time>
      </trkpt>
      <trkpt lat="59.9703545" lon="17.7531757">
        <ele>17.4412</ele>
        <time>2012-04-14T18:55:05Z</time>
      </trkpt>
      <trkpt lat="59.9704588" lon="17.7528916">
        <ele>16.4797</ele>
        <time>2012-04-14T18:55:13Z</time>
      </trkpt>
      <trkpt lat="59.9705278" lon="17.752704">
        <ele>16.4797</ele>
        <time>2012-04-14T18:55:18Z</time>
      </trkpt>
      <trkpt lat="59.9706192" lon="17.7525574">
        <ele>13.5958</ele>
        <time>2012-04-14T18:55:24Z</time>
      </trkpt>
      <trkpt lat="59.9706983" lon="17.7524087">
        <ele>12.1538</ele>
        <time>2012-04-14T18:55:29Z</time>
      </trkpt>
      <trkpt lat="59.9708241" lon="17.7522543">
        <ele>7.82788</ele>
        <time>2012-04-14T18:55:36Z</time>
      </trkpt>
      <trkpt lat="59.9709394" lon="17.752134">
        <ele>4.94385</ele>
        <time>2012-04-14T18:55:42Z</time>
      </trkpt>
      <trkpt lat="59.970997" lon="17.7520495">
        <ele>3.98267</ele>
        <time>2012-04-14T18:55:45Z</time>
      </trkpt>
      <trkpt lat="59.9710887" lon="17.7519056">
        <ele>4.94385</ele>
        <time>2012-04-14T18:55:50Z</time>
      </trkpt>
      <trkpt lat="59.9712125" lon="17.7517564">
        <ele>5.42456</ele>
        <time>2012-04-14T18:55:56Z</time>
      </trkpt>
      <trkpt lat="59.971256" lon="17.7517233">
        <ele>4.46326</ele>
        <time>2012-04-14T18:55:58Z</time>
      </trkpt>
      <trkpt lat="59.971368" lon="17.7515797">
        <ele>5.42456</ele>
        <time>2012-04-14T18:56:04Z</time>
      </trkpt>
      <trkpt lat="59.9713844" lon="17.7515447">
        <ele>5.90527</ele>
        <time>2012-04-14T18:56:05Z</time>
      </trkpt>
      <trkpt lat="59.9715062" lon="17.7513562">
        <ele>7.82788</ele>
        <time>2012-04-14T18:56:11Z</time>
      </trkpt>
      <trkpt lat="59.9716053" lon="17.7511966">
        <ele>9.75061</ele>
        <time>2012-04-14T18:56:16Z</time>
      </trkpt>
      <trkpt lat="59.9717184" lon="17.7509893">
        <ele>12.1538</ele>
        <time>2012-04-14T18:56:22Z</time>
      </trkpt>
      <trkpt lat="59.9717939" lon="17.7508534">
        <ele>12.1538</ele>
        <time>2012-04-14T18:56:26Z</time>
      </trkpt>
      <trkpt lat="59.9719052" lon="17.750653">
        <ele>12.6344</ele>
        <time>2012-04-14T18:56:32Z</time>
      </trkpt>
      <trkpt lat="59.9719482" lon="17.7505396">
        <ele>13.5958</ele>
        <time>2012-04-14T18:56:35Z</time>
      </trkpt>
      <trkpt lat="59.972018" lon="17.7503427">
        <ele>14.557</ele>
        <time>2012-04-14T18:56:40Z</time>
      </trkpt>
      <trkpt lat="59.9720661" lon="17.7502652">
        <ele>15.0377</ele>
        <time>2012-04-14T18:56:43Z</time>
      </trkpt>
      <trkpt lat="59.9721449" lon="17.7500709">
        <ele>15.5184</ele>
        <time>2012-04-14T18:56:48Z</time>
      </trkpt>
      <trkpt lat="59.9722112" lon="17.7498527">
        <ele>17.4412</ele>
        <time>2012-04-14T18:56:53Z</time>
      </trkpt>
      <trkpt lat="59.9722882" lon="17.7496659">
        <ele>18.4023</ele>
        <time>2012-04-14T18:56:58Z</time>
      </trkpt>
      <trkpt lat="59.9723663" lon="17.7495071">
        <ele>19.3638</ele>
        <time>2012-04-14T18:57:03Z</time>
      </trkpt>
      <trkpt lat="59.9724278" lon="17.7493776">
        <ele>19.8444</ele>
        <time>2012-04-14T18:57:07Z</time>
      </trkpt>
      <trkpt lat="59.9725065" lon="17.7492256">
        <ele>19.8444</ele>
        <time>2012-04-14T18:57:12Z</time>
      </trkpt>
      <trkpt lat="59.9725727" lon="17.7490478">
        <ele>20.325</ele>
        <time>2012-04-14T18:57:17Z</time>
      </trkpt>
      <trkpt lat="59.9726255" lon="17.7488992">
        <ele>21.767</ele>
        <time>2012-04-14T18:57:20Z</time>
      </trkpt>
      <trkpt lat="59.9726934" lon="17.7487312">
        <ele>22.7283</ele>
        <time>2012-04-14T18:57:24Z</time>
      </trkpt>
      <trkpt lat="59.9727552" lon="17.7485662">
        <ele>23.6896</ele>
        <time>2012-04-14T18:57:28Z</time>
      </trkpt>
      <trkpt lat="59.972847" lon="17.7484003">
        <ele>22.7283</ele>
        <time>2012-04-14T18:57:33Z</time>
      </trkpt>
      <trkpt lat="59.972924" lon="17.7482737">
        <ele>22.7283</ele>
        <time>2012-04-14T18:57:37Z</time>
      </trkpt>
      <trkpt lat="59.973021" lon="17.7481333">
        <ele>23.209</ele>
        <time>2012-04-14T18:57:42Z</time>
      </trkpt>
      <trkpt lat="59.9730427" lon="17.7481235">
        <ele>23.6896</ele>
        <time>2012-04-14T18:57:43Z</time>
      </trkpt>
      <trkpt lat="59.9731081" lon="17.7480261">
        <ele>23.209</ele>
        <time>2012-04-14T18:57:46Z</time>
      </trkpt>
      <trkpt lat="59.9732497" lon="17.7478906">
        <ele>23.209</ele>
        <time>2012-04-14T18:57:52Z</time>
      </trkpt>
      <trkpt lat="59.9733571" lon="17.7477683">
        <ele>24.1703</ele>
        <time>2012-04-14T18:57:57Z</time>
      </trkpt>
      <trkpt lat="59.9734805" lon="17.7476067">
        <ele>22.7283</ele>
        <time>2012-04-14T18:58:03Z</time>
      </trkpt>
      <trkpt lat="59.9735555" lon="17.7475302">
        <ele>23.6896</ele>
        <time>2012-04-14T18:58:06Z</time>
      </trkpt>
      <trkpt lat="59.9736612" lon="17.7474487">
        <ele>22.7283</ele>
        <time>2012-04-14T18:58:11Z</time>
      </trkpt>
      <trkpt lat="59.9736812" lon="17.7474322">
        <ele>22.7283</ele>
        <time>2012-04-14T18:58:12Z</time>
      </trkpt>
      <trkpt lat="59.9737823" lon="17.747326">
        <ele>22.2476</ele>
        <time>2012-04-14T18:58:18Z</time>
      </trkpt>
      <trkpt lat="59.9738816" lon="17.7472203">
        <ele>21.2864</ele>
        <time>2012-04-14T18:58:23Z</time>
      </trkpt>
      <trkpt lat="59.9739581" lon="17.7471281">
        <ele>19.3638</ele>
        <time>2012-04-14T18:58:27Z</time>
      </trkpt>
      <trkpt lat="59.9740844" lon="17.7469649">
        <ele>18.8831</ele>
        <time>2012-04-14T18:58:33Z</time>
      </trkpt>
      <trkpt lat="59.9741093" lon="17.7469414">
        <ele>18.8831</ele>
        <time>2012-04-14T18:58:34Z</time>
      </trkpt>
      <trkpt lat="59.9742339" lon="17.7467732">
        <ele>18.4023</ele>
        <time>2012-04-14T18:58:40Z</time>
      </trkpt>
      <trkpt lat="59.9743569" lon="17.7466329">
        <ele>19.3638</ele>
        <time>2012-04-14T18:58:46Z</time>
      </trkpt>
      <trkpt lat="59.9744624" lon="17.7464681">
        <ele>21.767</ele>
        <time>2012-04-14T18:58:51Z</time>
      </trkpt>
      <trkpt lat="59.9745806" lon="17.7462651">
        <ele>24.1703</ele>
        <time>2012-04-14T18:58:57Z</time>
      </trkpt>
      <trkpt lat="59.9746709" lon="17.7460801">
        <ele>25.6123</ele>
        <time>2012-04-14T18:59:02Z</time>
      </trkpt>
      <trkpt lat="59.9747475" lon="17.745908">
        <ele>26.5736</ele>
        <time>2012-04-14T18:59:06Z</time>
      </trkpt>
      <trkpt lat="59.9748185" lon="17.7457491">
        <ele>27.0543</ele>
        <time>2012-04-14T18:59:10Z</time>
      </trkpt>
      <trkpt lat="59.9748908" lon="17.74553">
        <ele>28.4962</ele>
        <time>2012-04-14T18:59:15Z</time>
      </trkpt>
      <trkpt lat="59.9749702" lon="17.745301">
        <ele>27.0543</ele>
        <time>2012-04-14T18:59:21Z</time>
      </trkpt>
      <trkpt lat="59.975042" lon="17.7451115">
        <ele>26.0929</ele>
        <time>2012-04-14T18:59:26Z</time>
      </trkpt>
      <trkpt lat="59.9750965" lon="17.7449321">
        <ele>26.5736</ele>
        <time>2012-04-14T18:59:30Z</time>
      </trkpt>
      <trkpt lat="59.9751417" lon="17.7447907">
        <ele>27.0543</ele>
        <time>2012-04-14T18:59:33Z</time>
      </trkpt>
      <trkpt lat="59.9752073" lon="17.7445702">
        <ele>26.5736</ele>
        <time>2012-04-14T18:59:38Z</time>
      </trkpt>
      <trkpt lat="59.9752638" lon="17.744313">
        <ele>27.0543</ele>
        <time>2012-04-14T18:59:43Z</time>
      </trkpt>
      <trkpt lat="59.9752971" lon="17.7440608">
        <ele>29.9381</ele>
        <time>2012-04-14T18:59:47Z</time>
      </trkpt>
      <trkpt lat="59.9753257" lon="17.743751">
        <ele>32.8223</ele>
        <time>2012-04-14T18:59:52Z</time>
      </trkpt>
      <trkpt lat="59.9753623" lon="17.7434156">
        <ele>33.3029</ele>
        <time>2012-04-14T18:59:58Z</time>
      </trkpt>
      <trkpt lat="59.9754047" lon="17.7431813">
        <ele>35.7061</ele>
        <time>2012-04-14T19:00:02Z</time>
      </trkpt>
      <trkpt lat="59.9754536" lon="17.7429907">
        <ele>35.7061</ele>
        <time>2012-04-14T19:00:06Z</time>
      </trkpt>
      <trkpt lat="59.9754985" lon="17.7428092">
        <ele>34.7449</ele>
        <time>2012-04-14T19:00:10Z</time>
      </trkpt>
      <trkpt lat="59.9755694" lon="17.7426017">
        <ele>34.2642</ele>
        <time>2012-04-14T19:00:15Z</time>
      </trkpt>
      <trkpt lat="59.9756353" lon="17.7423472">
        <ele>34.2642</ele>
        <time>2012-04-14T19:00:20Z</time>
      </trkpt>
      <trkpt lat="59.9756872" lon="17.7421288">
        <ele>33.7834</ele>
        <time>2012-04-14T19:00:24Z</time>
      </trkpt>
      <trkpt lat="59.9757403" lon="17.7419063">
        <ele>32.8223</ele>
        <time>2012-04-14T19:00:28Z</time>
      </trkpt>
      <trkpt lat="59.9757778" lon="17.7417763">
        <ele>31.3801</ele>
        <time>2012-04-14T19:00:31Z</time>
      </trkpt>
      <trkpt lat="59.9758663" lon="17.7414864">
        <ele>30.8995</ele>
        <time>2012-04-14T19:00:37Z</time>
      </trkpt>
      <trkpt lat="59.9758778" lon="17.7414377">
        <ele>30.8995</ele>
        <time>2012-04-14T19:00:38Z</time>
      </trkpt>
      <trkpt lat="59.9759586" lon="17.741171">
        <ele>29.9381</ele>
        <time>2012-04-14T19:00:44Z</time>
      </trkpt>
      <trkpt lat="59.9759947" lon="17.74102">
        <ele>30.8995</ele>
        <time>2012-04-14T19:00:47Z</time>
      </trkpt>
      <trkpt lat="59.9760751" lon="17.7407649">
        <ele>29.4575</ele>
        <time>2012-04-14T19:00:53Z</time>
      </trkpt>
      <trkpt lat="59.97614" lon="17.7405197">
        <ele>29.9381</ele>
        <time>2012-04-14T19:00:58Z</time>
      </trkpt>
      <trkpt lat="59.9762054" lon="17.7403283">
        <ele>29.9381</ele>
        <time>2012-04-14T19:01:02Z</time>
      </trkpt>
      <trkpt lat="59.9762688" lon="17.7400529">
        <ele>31.3801</ele>
        <time>2012-04-14T19:01:07Z</time>
      </trkpt>
    </trkseg>
  </trk>
</gpx>